createdAt,value
2022-08-18T00:02:21.980Z,20.40
2022-08-18T00:04:53.087Z,20.50
2022-08-18T00:07:31.748Z,20.40
2022-08-18T00:10:00.201Z,20.40
2022-08-18T00:12:33.440Z,20.40
2022-08-18T00:15:05.531Z,20.40
2022-08-18T00:17:59.497Z,20.40
2022-08-18T00:20:26.407Z,20.30
2022-08-18T00:22:53.674Z,20.30
2022-08-18T00:25:20.941Z,20.30
2022-08-18T00:27:51.339Z,20.30
2022-08-18T00:30:20.293Z,20.20
2022-08-18T00:32:54.146Z,20.20
2022-08-18T00:35:29.422Z,20.20
2022-08-18T00:37:58.709Z,20.10
2022-08-18T00:40:37.872Z,20.20
2022-08-18T00:43:07.229Z,20.10
2022-08-18T00:45:38.069Z,20.10
2022-08-18T00:48:06.290Z,20.10
2022-08-18T00:50:40.423Z,20.10
2022-08-18T00:53:31.489Z,20.00
2022-08-18T00:56:04.954Z,20.00
2022-08-18T00:58:37.431Z,20.00
2022-08-18T01:01:06.687Z,20.00
2022-08-18T01:03:36.347Z,20.00
2022-08-18T01:06:15.146Z,20.00
2022-08-18T01:08:42.796Z,20.00
2022-08-18T01:11:10.588Z,19.90
2022-08-18T01:13:41.604Z,19.90
2022-08-18T01:16:27.265Z,19.90
2022-08-18T01:19:13.376Z,19.90
2022-08-18T01:21:52.545Z,19.90
2022-08-18T01:24:49.229Z,19.90
2022-08-18T01:27:18.971Z,19.90
2022-08-18T01:29:48.684Z,19.80
2022-08-18T01:32:19.798Z,19.80
2022-08-18T01:34:49.292Z,19.70
2022-08-18T01:37:18.797Z,19.70
2022-08-18T01:41:01.001Z,19.70
2022-08-18T01:42:34.309Z,19.70
2022-08-18T01:45:03.924Z,19.70
2022-08-18T01:47:47.880Z,19.60
2022-08-18T01:50:17.350Z,19.60
2022-08-18T01:52:44.580Z,19.60
2022-08-18T01:55:11.481Z,19.60
2022-08-18T01:57:44.960Z,19.60
2022-08-18T02:00:14.898Z,19.60
2022-08-18T02:02:42.845Z,19.60
2022-08-18T02:05:16.279Z,19.60
2022-08-18T02:07:43.365Z,19.50
2022-08-18T02:10:12.470Z,19.50
2022-08-18T02:12:43.891Z,19.60
2022-08-18T02:15:11.923Z,19.60
2022-08-18T02:17:40.719Z,19.60
2022-08-18T02:20:10.066Z,19.60
2022-08-18T02:22:37.833Z,19.50
2022-08-18T02:25:06.793Z,19.50
2022-08-18T02:27:35.270Z,19.60
2022-08-18T02:30:05.564Z,19.50
2022-08-18T02:32:33.072Z,19.50
2022-08-18T02:35:00.519Z,19.50
2022-08-18T02:37:27.517Z,19.50
2022-08-18T02:39:54.397Z,19.40
2022-08-18T02:42:21.641Z,19.40
2022-08-18T02:44:48.791Z,19.40
2022-08-18T02:47:15.707Z,19.40
2022-08-18T02:49:42.721Z,19.40
2022-08-18T02:52:09.638Z,19.30
2022-08-18T02:54:36.605Z,19.40
2022-08-18T02:57:08.540Z,19.30
2022-08-18T02:59:36.768Z,19.40
2022-08-18T03:02:08.738Z,19.40
2022-08-18T03:04:36.174Z,19.40
2022-08-18T03:07:05.906Z,19.40
2022-08-18T03:09:34.469Z,19.30
2022-08-18T03:12:01.792Z,19.30
2022-08-18T03:14:29.583Z,19.30
2022-08-18T03:16:57.040Z,19.30
2022-08-18T03:19:25.692Z,19.30
2022-08-18T03:21:53.000Z,19.30
2022-08-18T03:24:22.934Z,19.30
2022-08-18T03:26:52.833Z,19.30
2022-08-18T03:29:20.718Z,19.30
2022-08-18T03:31:48.739Z,19.30
2022-08-18T03:34:19.942Z,19.30
2022-08-18T03:36:49.213Z,19.30
2022-08-18T03:39:17.431Z,19.20
2022-08-18T03:41:58.838Z,19.30
2022-08-18T03:44:32.953Z,19.20
2022-08-18T03:47:03.146Z,19.30
2022-08-18T03:49:33.497Z,19.20
2022-08-18T03:52:01.421Z,19.20
2022-08-18T03:54:29.639Z,19.20
2022-08-18T03:56:56.733Z,19.20
2022-08-18T03:59:25.512Z,19.20
2022-08-18T04:01:54.175Z,19.20
2022-08-18T04:04:25.360Z,19.20
2022-08-18T04:06:59.252Z,19.20
2022-08-18T04:09:29.452Z,19.20
2022-08-18T04:11:57.929Z,19.20
2022-08-18T04:14:32.714Z,19.10
2022-08-18T04:17:00.221Z,19.10
2022-08-18T04:19:28.133Z,19.10
2022-08-18T04:21:58.359Z,19.10
2022-08-18T04:24:31.886Z,19.10
2022-08-18T04:27:01.211Z,19.10
2022-08-18T04:29:28.707Z,19.10
2022-08-18T04:31:56.141Z,19.10
2022-08-18T04:34:23.318Z,19.10
2022-08-18T04:36:54.233Z,19.10
2022-08-18T04:39:22.663Z,19.10
2022-08-18T04:41:50.134Z,19.10
2022-08-18T04:44:18.255Z,19.20
2022-08-18T04:46:49.393Z,19.10
2022-08-18T04:49:18.801Z,19.10
2022-08-18T04:52:38.972Z,19.10
2022-08-18T04:54:56.215Z,19.10
2022-08-18T04:57:24.182Z,19.20
2022-08-18T04:59:52.597Z,19.20
2022-08-18T05:02:21.630Z,19.20
2022-08-18T05:04:48.683Z,19.30
2022-08-18T05:07:20.203Z,19.30
2022-08-18T05:09:48.439Z,19.30
2022-08-18T05:12:16.424Z,19.30
2022-08-18T05:14:45.783Z,19.40
2022-08-18T05:17:14.550Z,19.40
2022-08-18T05:19:44.499Z,19.40
2022-08-18T05:22:18.390Z,19.40
2022-08-18T05:24:47.156Z,19.50
2022-08-18T05:27:14.653Z,19.50
2022-08-18T05:29:46.130Z,19.50
2022-08-18T05:32:37.264Z,19.50
2022-08-18T05:35:13.767Z,19.50
2022-08-18T05:38:21.863Z,19.50
2022-08-18T05:41:07.746Z,19.60
2022-08-18T05:43:52.044Z,19.60
2022-08-18T05:46:47.665Z,19.70
2022-08-18T05:49:15.798Z,19.70
2022-08-18T05:51:49.538Z,19.80
2022-08-18T05:54:38.063Z,19.80
2022-08-18T05:57:11.843Z,19.90
2022-08-18T05:59:41.053Z,20.00
2022-08-18T06:02:08.077Z,20.00
2022-08-18T06:04:51.163Z,20.00
2022-08-18T06:07:34.701Z,20.10
2022-08-18T06:10:06.598Z,20.10
2022-08-18T06:12:37.337Z,20.10
2022-08-18T06:15:31.380Z,20.20
2022-08-18T06:18:27.159Z,20.20
2022-08-18T06:21:58.667Z,20.20
2022-08-18T06:25:01.481Z,20.20
2022-08-18T06:27:51.768Z,20.20
2022-08-18T06:30:42.603Z,20.30
2022-08-18T06:33:09.595Z,20.30
2022-08-18T06:35:48.506Z,20.30
2022-08-18T06:38:45.325Z,20.30
2022-08-18T06:41:41.858Z,20.30
2022-08-18T06:44:31.371Z,20.40
2022-08-18T06:47:08.156Z,20.40
2022-08-18T06:49:39.862Z,20.40
2022-08-18T06:52:19.244Z,20.30
2022-08-18T06:54:51.261Z,20.30
2022-08-18T06:57:28.448Z,20.40
2022-08-18T06:59:59.995Z,20.40
2022-08-18T07:02:48.503Z,20.30
2022-08-18T07:05:19.731Z,20.30
2022-08-18T07:08:00.811Z,20.30
2022-08-18T07:10:34.753Z,20.30
2022-08-18T07:13:26.246Z,20.30
2022-08-18T07:16:15.822Z,20.40
2022-08-18T07:18:44.316Z,20.40
2022-08-18T07:21:32.184Z,20.40
2022-08-18T07:24:24.367Z,20.40
2022-08-18T07:27:20.942Z,20.40
2022-08-18T07:30:03.735Z,20.40
2022-08-18T07:32:39.422Z,20.40
2022-08-18T07:35:08.487Z,20.40
2022-08-18T07:38:00.592Z,20.40
2022-08-18T07:40:45.152Z,20.40
2022-08-18T07:43:27.414Z,20.40
2022-08-18T07:46:03.596Z,20.40
2022-08-18T07:48:38.529Z,20.40
2022-08-18T07:51:09.428Z,20.50
2022-08-18T07:54:02.531Z,20.50
2022-08-18T07:56:37.036Z,20.50
2022-08-18T07:59:25.604Z,20.50
2022-08-18T08:02:23.833Z,20.60
2022-08-18T08:05:02.664Z,20.60
2022-08-18T08:07:46.211Z,20.70
2022-08-18T08:10:29.635Z,20.70
2022-08-18T08:13:09.213Z,20.70
2022-08-18T08:16:12.001Z,20.70
2022-08-18T08:19:03.153Z,20.80
2022-08-18T08:21:53.047Z,20.90
2022-08-18T08:24:39.517Z,20.90
2022-08-18T08:27:35.277Z,20.90
2022-08-18T08:30:18.511Z,21.00
2022-08-18T08:33:13.632Z,21.10
2022-08-18T08:35:55.299Z,21.10
2022-08-18T08:38:43.039Z,21.10
2022-08-18T08:41:22.471Z,21.20
2022-08-18T08:44:23.702Z,21.20
2022-08-18T08:46:56.510Z,21.30
2022-08-18T08:49:47.132Z,21.30
2022-08-18T08:53:00.485Z,21.30
2022-08-18T08:55:35.600Z,21.30
2022-08-18T08:58:15.192Z,21.30
2022-08-18T09:00:43.118Z,21.30
2022-08-18T09:03:48.330Z,21.30
2022-08-18T09:06:39.472Z,21.40
2022-08-18T09:09:31.322Z,21.40
2022-08-18T09:12:14.817Z,21.50
2022-08-18T09:15:02.662Z,21.50
2022-08-18T09:17:41.618Z,21.60
2022-08-18T09:20:26.739Z,21.60
2022-08-18T09:23:13.897Z,21.70
2022-08-18T09:25:43.581Z,21.70
2022-08-18T09:28:18.200Z,21.80
2022-08-18T09:34:07.208Z,21.80
2022-08-18T09:36:49.859Z,21.90
2022-08-18T09:39:53.157Z,21.90
2022-08-18T09:42:51.227Z,21.90
2022-08-18T09:45:33.577Z,22.00
2022-08-18T09:48:02.155Z,22.00
2022-08-18T09:50:29.001Z,22.00
2022-08-18T09:53:15.786Z,22.00
2022-08-18T09:55:57.958Z,22.10
2022-08-18T09:58:29.195Z,22.20
2022-08-18T10:01:33.125Z,22.20
2022-08-18T10:04:15.566Z,22.30
2022-08-18T10:09:51.558Z,22.30
2022-08-18T10:12:45.658Z,22.30
2022-08-18T10:15:12.546Z,22.40
2022-08-18T10:18:03.399Z,22.40
2022-08-18T10:20:38.801Z,22.40
2022-08-18T10:23:08.859Z,22.50
2022-08-18T10:25:38.770Z,22.50
2022-08-18T10:28:10.097Z,22.50
2022-08-18T10:30:56.848Z,22.60
2022-08-18T10:33:51.840Z,22.60
2022-08-18T10:36:42.127Z,22.70
2022-08-18T10:39:20.414Z,22.70
2022-08-18T10:41:56.932Z,22.70
2022-08-18T10:44:29.755Z,22.80
2022-08-18T10:47:00.379Z,22.80
2022-08-18T10:49:31.998Z,22.80
2022-08-18T10:52:28.322Z,22.80
2022-08-18T10:55:06.273Z,22.80
2022-08-18T10:57:49.372Z,22.90
2022-08-18T11:00:20.591Z,22.90
2022-08-18T11:03:42.216Z,22.90
2022-08-18T11:06:06.622Z,22.90
2022-08-18T11:08:48.278Z,22.90
2022-08-18T11:11:37.435Z,22.90
2022-08-18T11:14:54.477Z,23.00
2022-08-18T11:17:46.432Z,23.10
2022-08-18T11:20:18.164Z,23.00
2022-08-18T11:22:56.509Z,23.10
2022-08-18T11:25:29.106Z,23.00
2022-08-18T11:27:57.564Z,23.10
2022-08-18T11:30:35.334Z,23.10
2022-08-18T11:33:04.134Z,23.20
2022-08-18T11:35:46.933Z,23.20
2022-08-18T11:38:22.287Z,23.30
2022-08-18T11:41:11.691Z,23.30
2022-08-18T11:43:43.141Z,23.30
2022-08-18T11:46:27.920Z,23.30
2022-08-18T11:48:57.300Z,23.40
2022-08-18T11:51:28.506Z,23.40
2022-08-18T11:54:21.927Z,23.40
2022-08-18T11:56:50.662Z,23.50
2022-08-18T11:59:54.021Z,23.50
2022-08-18T12:02:18.381Z,23.50
2022-08-18T12:04:52.896Z,23.60
2022-08-18T12:07:35.967Z,23.60
2022-08-18T12:10:16.473Z,23.70
2022-08-18T12:13:00.673Z,23.70
2022-08-18T12:15:43.436Z,23.70
2022-08-18T12:21:05.793Z,23.70
2022-08-18T12:23:39.223Z,23.60
2022-08-18T12:29:05.153Z,23.60
2022-08-18T12:31:41.989Z,23.60
2022-08-18T12:34:15.639Z,23.70
2022-08-18T12:36:42.858Z,23.80
2022-08-18T12:39:10.631Z,23.80
2022-08-18T12:41:38.027Z,23.90
2022-08-18T12:44:09.929Z,23.90
2022-08-18T12:46:42.767Z,24.00
2022-08-18T12:49:22.205Z,24.00
2022-08-18T12:51:50.248Z,24.10
2022-08-18T12:54:20.191Z,24.10
2022-08-18T12:56:51.731Z,24.20
2022-08-18T12:59:19.021Z,24.20
2022-08-18T13:01:46.823Z,24.20
2022-08-18T13:04:15.595Z,24.20
2022-08-18T13:06:59.607Z,24.20
2022-08-18T13:09:48.057Z,24.20
2022-08-18T13:12:20.004Z,24.20
2022-08-18T13:14:47.971Z,24.20
2022-08-18T13:17:32.318Z,24.20
2022-08-18T13:20:05.622Z,24.30
2022-08-18T13:22:33.376Z,24.40
2022-08-18T13:25:06.819Z,24.40
2022-08-18T13:27:37.417Z,24.40
2022-08-18T13:30:30.054Z,24.40
2022-08-18T13:33:02.426Z,24.40
2022-08-18T13:35:35.130Z,24.50
2022-08-18T13:38:12.404Z,24.40
2022-08-18T13:40:47.043Z,24.40
2022-08-18T13:43:15.632Z,24.40
2022-08-18T13:45:52.655Z,24.30
2022-08-18T13:48:20.323Z,24.30
2022-08-18T13:50:47.476Z,24.30
2022-08-18T13:53:21.274Z,24.30
2022-08-18T13:55:49.239Z,24.30
2022-08-18T13:58:17.492Z,24.40
2022-08-18T14:00:52.392Z,24.40
2022-08-18T14:03:42.922Z,24.30
2022-08-18T14:06:13.010Z,24.40
2022-08-18T14:08:41.243Z,24.40
2022-08-18T14:11:09.627Z,24.50
2022-08-18T14:13:38.319Z,24.50
2022-08-18T14:16:18.861Z,24.50
2022-08-18T14:19:09.751Z,24.50
2022-08-18T14:22:01.231Z,24.50
2022-08-18T14:24:48.909Z,24.60
2022-08-18T14:27:17.526Z,24.60
2022-08-18T14:29:48.188Z,24.60
2022-08-18T14:32:28.566Z,24.60
2022-08-18T14:36:04.649Z,24.50
2022-08-18T14:37:48.974Z,24.50
2022-08-18T14:40:17.352Z,24.50
2022-08-18T14:42:54.825Z,24.50
2022-08-18T14:45:34.292Z,24.50
2022-08-18T14:48:07.255Z,24.40
2022-08-18T14:50:36.069Z,24.40
2022-08-18T14:53:04.978Z,24.40
2022-08-18T14:55:32.285Z,24.50
2022-08-18T14:57:59.553Z,24.50
2022-08-18T15:00:28.043Z,24.50
2022-08-18T15:02:55.384Z,24.50
2022-08-18T15:05:24.393Z,24.50
2022-08-18T15:07:52.918Z,24.50
2022-08-18T15:10:23.690Z,24.50
2022-08-18T15:12:55.467Z,24.50
2022-08-18T15:15:22.901Z,24.40
2022-08-18T15:17:52.914Z,24.50
2022-08-18T15:20:23.880Z,24.50
2022-08-18T15:23:17.984Z,24.50
2022-08-18T15:25:51.074Z,24.50
2022-08-18T15:28:19.918Z,24.50
2022-08-18T15:30:51.178Z,24.50
2022-08-18T15:33:23.551Z,24.40
2022-08-18T15:35:52.039Z,24.40
2022-08-18T15:38:21.344Z,24.40
2022-08-18T15:40:57.293Z,24.40
2022-08-18T15:43:31.384Z,24.40
2022-08-18T15:46:00.409Z,24.40
2022-08-18T15:48:30.732Z,24.40
2022-08-18T15:50:57.724Z,24.30
2022-08-18T15:53:39.924Z,24.30
2022-08-18T15:56:16.764Z,24.20
2022-08-18T15:58:49.160Z,24.20
2022-08-18T16:01:30.433Z,24.10
2022-08-18T16:04:01.323Z,24.10
2022-08-18T16:06:32.089Z,24.10
2022-08-18T16:09:00.748Z,24.10
2022-08-18T16:11:29.643Z,24.00
2022-08-18T16:13:58.975Z,24.00
2022-08-18T16:16:35.688Z,24.00
2022-08-18T16:19:05.640Z,24.00
2022-08-18T16:21:33.059Z,24.00
2022-08-18T16:24:00.159Z,24.00
2022-08-18T16:26:27.119Z,24.00
2022-08-18T16:28:54.237Z,24.00
2022-08-18T16:31:26.550Z,24.00
2022-08-18T16:33:55.085Z,24.00
2022-08-18T16:36:26.672Z,23.90
2022-08-18T16:38:56.178Z,23.80
2022-08-18T16:41:26.727Z,23.80
2022-08-18T16:43:56.244Z,23.80
2022-08-18T16:46:26.489Z,23.70
2022-08-18T16:48:56.405Z,23.70
2022-08-18T16:51:25.903Z,23.60
2022-08-18T16:53:54.481Z,23.50
2022-08-18T16:56:27.232Z,23.50
2022-08-18T16:59:13.218Z,23.50
2022-08-18T17:02:01.050Z,23.40
2022-08-18T17:04:33.492Z,23.40
2022-08-18T17:07:05.034Z,23.30
2022-08-18T17:09:33.457Z,23.30
2022-08-18T17:12:01.358Z,23.30
2022-08-18T17:14:30.006Z,23.20
2022-08-18T17:16:58.531Z,23.20
2022-08-18T17:19:27.962Z,23.20
2022-08-18T17:21:54.977Z,23.10
2022-08-18T17:24:31.314Z,23.10
2022-08-18T17:27:26.292Z,23.10
2022-08-18T17:30:07.092Z,23.10
2022-08-18T17:32:43.149Z,23.10
2022-08-18T17:35:20.258Z,23.10
2022-08-18T17:38:12.807Z,23.10
2022-08-18T17:40:45.598Z,23.00
2022-08-18T17:43:17.232Z,23.00
2022-08-18T17:45:46.958Z,23.00
2022-08-18T17:48:17.882Z,22.90
2022-08-18T17:51:10.126Z,22.80
2022-08-18T17:53:37.441Z,22.70
2022-08-18T17:56:14.896Z,22.70
2022-08-18T17:58:48.749Z,22.70
2022-08-18T18:01:17.546Z,22.70
2022-08-18T18:03:46.940Z,22.60
2022-08-18T18:06:35.188Z,22.60
2022-08-18T18:09:13.444Z,22.50
2022-08-18T18:11:47.047Z,22.50
2022-08-18T18:14:39.499Z,22.40
2022-08-18T18:17:30.828Z,22.40
2022-08-18T18:20:23.375Z,22.40
2022-08-18T18:22:52.214Z,22.30
2022-08-18T18:25:34.603Z,22.20
2022-08-18T18:28:02.047Z,22.10
2022-08-18T18:30:32.855Z,22.10
2022-08-18T18:33:05.549Z,22.00
2022-08-18T18:35:53.348Z,22.00
2022-08-18T18:38:28.418Z,22.00
2022-08-18T18:41:12.479Z,21.90
2022-08-18T18:43:46.866Z,21.90
2022-08-18T18:46:18.826Z,21.80
2022-08-18T18:49:05.934Z,21.90
2022-08-18T18:51:52.398Z,21.80
2022-08-18T18:54:49.961Z,21.70
2022-08-18T18:57:32.015Z,21.70
2022-08-18T19:00:18.235Z,21.70
2022-08-18T19:02:58.314Z,21.60
2022-08-18T19:05:42.742Z,21.60
2022-08-18T19:08:12.652Z,21.50
2022-08-18T19:10:54.077Z,21.50
2022-08-18T19:13:39.293Z,21.50
2022-08-18T19:16:24.296Z,21.50
2022-08-18T19:19:37.896Z,21.40
2022-08-18T19:22:07.244Z,21.40
2022-08-18T19:24:53.783Z,21.30
2022-08-18T19:27:28.222Z,21.30
2022-08-18T19:30:01.786Z,21.30
2022-08-18T19:32:39.902Z,21.30
2022-08-18T19:35:12.053Z,21.20
2022-08-18T19:37:53.235Z,21.20
2022-08-18T19:40:21.243Z,21.20
2022-08-18T19:42:58.728Z,21.10
2022-08-18T19:45:40.807Z,21.20
2022-08-18T19:48:23.848Z,21.20
2022-08-18T19:51:18.127Z,21.10
2022-08-18T19:54:09.462Z,21.10
2022-08-18T19:56:36.437Z,21.00
2022-08-18T19:59:34.029Z,21.00
2022-08-18T20:02:16.046Z,21.00
2022-08-18T20:04:59.215Z,21.00
2022-08-18T20:07:48.990Z,21.00
2022-08-18T20:10:41.236Z,21.00
2022-08-18T20:13:27.648Z,21.00
2022-08-18T20:16:43.894Z,21.00
2022-08-18T20:19:49.869Z,21.00
2022-08-18T20:22:24.492Z,21.00
2022-08-18T20:24:54.054Z,21.00
2022-08-18T20:27:30.244Z,21.00
2022-08-18T20:30:23.511Z,21.00
2022-08-18T20:33:09.984Z,20.90
2022-08-18T20:36:21.766Z,20.90
2022-08-18T20:38:54.468Z,20.90
2022-08-18T20:41:39.895Z,20.90
2022-08-18T20:44:13.230Z,20.90
2022-08-18T20:47:04.323Z,20.90
2022-08-18T20:50:13.292Z,20.90
2022-08-18T20:52:49.235Z,20.80
2022-08-18T20:55:36.297Z,20.70
2022-08-18T20:58:17.391Z,20.80
2022-08-18T21:00:49.422Z,20.80
2022-08-18T21:03:20.558Z,20.70
2022-08-18T21:05:50.370Z,20.70
2022-08-18T21:08:28.815Z,20.60
2022-08-18T21:11:10.103Z,20.60
2022-08-18T21:13:51.464Z,20.60
2022-08-18T21:16:38.201Z,20.70
2022-08-18T21:19:32.312Z,20.60
2022-08-18T21:22:02.154Z,20.60
2022-08-18T21:24:43.929Z,20.60
2022-08-18T21:27:16.040Z,20.60
2022-08-18T21:29:49.338Z,20.60
2022-08-18T21:32:31.625Z,20.60
2022-08-18T21:35:05.666Z,20.60
2022-08-18T21:37:40.552Z,20.60
2022-08-18T21:40:08.281Z,20.60
2022-08-18T21:42:44.090Z,20.60
2022-08-18T21:45:23.234Z,20.60
2022-08-18T21:47:56.732Z,20.60
2022-08-18T21:50:27.345Z,20.50
2022-08-18T21:52:54.590Z,20.50
2022-08-18T21:55:32.737Z,20.50
2022-08-18T21:58:19.745Z,20.50
2022-08-18T22:01:18.988Z,20.50
2022-08-18T22:04:18.202Z,20.50
2022-08-18T22:06:52.911Z,20.50
2022-08-18T22:09:47.575Z,20.50
2022-08-18T22:12:50.466Z,20.50
2022-08-18T22:15:27.803Z,20.40
2022-08-18T22:18:05.475Z,20.40
2022-08-18T22:20:44.504Z,20.40
2022-08-18T22:23:33.042Z,20.40
2022-08-18T22:26:17.164Z,20.40
2022-08-18T22:28:53.073Z,20.40
2022-08-18T22:31:21.384Z,20.40
2022-08-18T22:33:49.755Z,20.30
2022-08-18T22:36:21.797Z,20.30
2022-08-18T22:38:49.626Z,20.30
2022-08-18T22:41:17.447Z,20.30
2022-08-18T22:43:45.272Z,20.30
2022-08-18T22:46:24.104Z,20.30
2022-08-18T22:48:52.706Z,20.30
2022-08-18T22:51:24.311Z,20.30
2022-08-18T22:53:51.474Z,20.30
2022-08-18T22:56:21.885Z,20.30
2022-08-18T22:59:05.876Z,20.30
2022-08-18T23:01:44.241Z,20.30
2022-08-18T23:04:11.227Z,20.30
2022-08-18T23:06:38.237Z,20.30
2022-08-18T23:09:05.987Z,20.20
2022-08-18T23:11:33.698Z,20.20
2022-08-18T23:14:02.146Z,20.20
2022-08-18T23:16:31.618Z,20.30
2022-08-18T23:19:02.096Z,20.20
2022-08-18T23:21:34.410Z,20.20
2022-08-18T23:24:04.439Z,20.20
2022-08-18T23:26:31.427Z,20.20
2022-08-18T23:28:58.537Z,20.20
2022-08-18T23:31:25.628Z,20.10
2022-08-18T23:33:52.531Z,20.20
2022-08-18T23:36:19.547Z,20.10
2022-08-18T23:38:46.501Z,20.10
2022-08-18T23:41:16.396Z,20.10
2022-08-18T23:43:43.293Z,20.10
2022-08-18T23:46:18.931Z,20.10
2022-08-18T23:48:49.725Z,20.10
2022-08-18T23:51:44.650Z,20.10
2022-08-18T23:54:24.456Z,20.10
2022-08-18T23:56:51.496Z,20.10
2022-08-18T23:59:20.684Z,20.10
